Volgoneft-250 — UFQT — position and weather

sailwx.info

Track history (hours):
 
Tides and Currents Weather Stations Pressure Air Temp Water Temp Dewpoint Dewpoint Depression Visibility Wind Speed Wind Dir Waves Ship Positions

Volgoneft-250

Last reported at 2016-Sep-15 21:17 UTC. Time now 2016-Sep-25 20:56 UTC.
Position N 45°31' E 036°48'.
Warning: this ship's position is 9 days out of date.

Length 132 m; draft 2.7 m.

Type: Tanker. MMSI: 273340600.

Date/timePositionNaut miles runAvg speedWind from/ knotsBaromVisibWave heightAir tempDewpointWater temp
2016-Sep-15 21:17N 45°31' E 036°48'6 8.0
2016-Sep-15 20:33N 45°26' E 036°44'15 7.3
2016-Sep-15 18:29N 45°16' E 036°28'5 0.2
2016-Sep-14 21:07N 45°11' E 036°28'20 5.5
2016-Sep-14 17:33N 45°28' E 036°44'1 1.1
2016-Sep-14 16:29N 45°28' E 036°45'0 0.0
2016-Sep-14 13:33N 45°28' E 036°45'0 0.0
2016-Sep-14 12:33N 45°28' E 036°45'0 0.0
2016-Sep-14 10:32N 45°28' E 036°45'0 0.0
2016-Sep-14 09:33N 45°28' E 036°45'0 0.0
2016-Sep-14 08:33N 45°28' E 036°45'0 0.0
2016-Sep-14 07:33N 45°28' E 036°45'0 0.0
2016-Sep-14 06:33N 45°28' E 036°45'0 0.0
2016-Sep-14 03:33N 45°28' E 036°45'0 0.0
2016-Sep-13 22:33N 45°28' E 036°45'0 0.0
2016-Sep-13 20:33N 45°28' E 036°45'0 0.0
2016-Sep-13 18:33N 45°28' E 036°45'0 0.0
2016-Sep-13 16:29N 45°28' E 036°45'0 0.0
2016-Sep-13 11:33N 45°28' E 036°45'0 0.0
2016-Sep-13 09:29N 45°28' E 036°45'0 0.0
2016-Sep-13 07:20N 45°28' E 036°45'0 0.0
2016-Sep-13 06:33N 45°28' E 036°45'0 0.0
2016-Sep-13 04:33N 45°28' E 036°45'0 0.0
2016-Sep-13 02:33N 45°28' E 036°45'0 0.0
2016-Sep-12 23:31N 45°28' E 036°45'0 0.0
2016-Sep-12 21:25N 45°28' E 036°45'0 0.0
2016-Sep-12 19:34N 45°28' E 036°45'0 0.0
2016-Sep-12 17:31N 45°28' E 036°45'0 0.0
2016-Sep-12 14:31N 45°28' E 036°45'0 0.0
2016-Sep-12 13:33N 45°28' E 036°45'0 0.0
2016-Sep-12 12:34N 45°28' E 036°45'0 0.0
2016-Sep-12 11:33N 45°28' E 036°45'0 0.0
2016-Sep-12 10:29N 45°28' E 036°45'0 0.0
2016-Sep-12 07:13N 45°28' E 036°45'0 0.0
2016-Sep-12 06:22N 45°28' E 036°45'0 0.0
2016-Sep-12 01:31N 45°28' E 036°45'0 0.0
2016-Sep-11 23:30N 45°28' E 036°45'0 0.0
2016-Sep-11 22:16N 45°28' E 036°45'0 0.0
2016-Sep-11 16:05N 45°28' E 036°45'0 0.0
2016-Sep-11 15:28N 45°28' E 036°45'0 0.0
2016-Sep-11 14:33N 45°28' E 036°45'0 0.0
2016-Sep-11 13:33N 45°28' E 036°45'0 0.0
2016-Sep-11 12:22N 45°28' E 036°45'0 0.0
2016-Sep-11 11:33N 45°28' E 036°45'0 0.0
2016-Sep-11 10:32N 45°28' E 036°45'0 0.0
2016-Sep-11 08:31N 45°28' E 036°45'0 0.0
2016-Sep-11 07:32N 45°28' E 036°45'0 0.0
2016-Sep-11 03:33N 45°28' E 036°45'0 0.0
2016-Sep-11 02:13N 45°28' E 036°45'0 0.0
2016-Sep-11 01:29N 45°28' E 036°45'0 0.0
2016-Sep-11 00:33N 45°28' E 036°45'0 0.0
2016-Sep-10 22:29N 45°28' E 036°45'0 0.0
2016-Sep-10 20:33N 45°28' E 036°45'0 0.0
2016-Sep-10 18:17N 45°28' E 036°45'0 0.0
2016-Sep-10 17:33N 45°28' E 036°45'0 0.0
2016-Sep-10 16:31N 45°28' E 036°45'0 0.0
2016-Sep-10 15:33N 45°28' E 036°45'0 0.0
2016-Sep-10 14:34N 45°28' E 036°45'0 0.0
2016-Sep-10 13:34N 45°28' E 036°45'0 0.0
2016-Sep-10 12:33N 45°28' E 036°45'0 0.0
2016-Sep-10 11:34N 45°28' E 036°45'0 0.0
2016-Sep-10 10:33N 45°28' E 036°45'0 0.0
2016-Sep-10 09:33N 45°28' E 036°45'0 0.0
2016-Sep-10 08:23N 45°28' E 036°45'0 0.0
2016-Sep-10 07:33N 45°28' E 036°45'1 0.6
2016-Sep-10 06:33N 45°28' E 036°44'1 1.4
2016-Sep-10 05:33N 45°30' E 036°44'0 0.0
2016-Sep-10 04:33N 45°30' E 036°44'0 0.0
2016-Sep-10 03:33N 45°30' E 036°44'0 0.0
2016-Sep-10 02:33N 45°30' E 036°44'0 0.0
2016-Sep-10 01:33N 45°30' E 036°44'0 0.0
2016-Sep-10 00:32N 45°30' E 036°44'0 0.0
2016-Sep-09 23:32N 45°30' E 036°44'0 0.0
2016-Sep-09 22:33N 45°30' E 036°44'0 0.0
2016-Sep-09 21:33N 45°30' E 036°44'0 0.0
2016-Sep-09 20:26N 45°30' E 036°44'0 0.0
2016-Sep-09 19:33N 45°30' E 036°44'0 0.0
2016-Sep-09 18:32N 45°30' E 036°44'0 0.0
2016-Sep-09 17:33N 45°30' E 036°44'0 0.0
2016-Sep-09 16:33N 45°30' E 036°44'0 0.0
2016-Sep-09 15:33N 45°30' E 036°44'0 0.0
2016-Sep-09 14:33N 45°30' E 036°44'0 0.0
2016-Sep-09 13:33N 45°30' E 036°44'0 0.0
2016-Sep-09 12:33N 45°30' E 036°44'1 1.0
2016-Sep-09 11:34N 45°30' E 036°45'  
Track history (hours):
 
Tides and Currents Weather Stations Pressure Air Temp Water Temp Dewpoint Dewpoint Depression Visibility Wind Speed Wind Dir Waves Ship Positions

Volgoneft-250

Last reported at 2016-Sep-15 21:17 UTC. Time now 2016-Sep-25 20:57 UTC.
Position N 45°31' E 036°48'.
Warning: this ship's position is 9 days out of date.

Length 132 m; draft 2.7 m.

Type: Tanker. MMSI: 273340600.

Date/timePositionNaut miles runAvg speedWind from/ knotsBaromVisibWave heightAir tempDewpointWater temp
2016-Sep-15 21:17N 45°31' E 036°48'6 8.0
2016-Sep-15 20:33N 45°26' E 036°44'15 7.3
2016-Sep-15 18:29N 45°16' E 036°28'5 0.2
2016-Sep-14 21:07N 45°11' E 036°28'20 5.5
2016-Sep-14 17:33N 45°28' E 036°44'1 1.1
2016-Sep-14 16:29N 45°28' E 036°45'0 0.0
2016-Sep-14 13:33N 45°28' E 036°45'0 0.0
2016-Sep-14 12:33N 45°28' E 036°45'0 0.0
2016-Sep-14 10:32N 45°28' E 036°45'0 0.0
2016-Sep-14 09:33N 45°28' E 036°45'0 0.0
2016-Sep-14 08:33N 45°28' E 036°45'0 0.0
2016-Sep-14 07:33N 45°28' E 036°45'0 0.0
2016-Sep-14 06:33N 45°28' E 036°45'0 0.0
2016-Sep-14 03:33N 45°28' E 036°45'0 0.0
2016-Sep-13 22:33N 45°28' E 036°45'0 0.0
2016-Sep-13 20:33N 45°28' E 036°45'0 0.0
2016-Sep-13 18:33N 45°28' E 036°45'0 0.0
2016-Sep-13 16:29N 45°28' E 036°45'0 0.0
2016-Sep-13 11:33N 45°28' E 036°45'0 0.0
2016-Sep-13 09:29N 45°28' E 036°45'0 0.0
2016-Sep-13 07:20N 45°28' E 036°45'0 0.0
2016-Sep-13 06:33N 45°28' E 036°45'0 0.0
2016-Sep-13 04:33N 45°28' E 036°45'0 0.0
2016-Sep-13 02:33N 45°28' E 036°45'0 0.0
2016-Sep-12 23:31N 45°28' E 036°45'0 0.0
2016-Sep-12 21:25N 45°28' E 036°45'0 0.0
2016-Sep-12 19:34N 45°28' E 036°45'0 0.0
2016-Sep-12 17:31N 45°28' E 036°45'0 0.0
2016-Sep-12 14:31N 45°28' E 036°45'0 0.0
2016-Sep-12 13:33N 45°28' E 036°45'0 0.0
2016-Sep-12 12:34N 45°28' E 036°45'0 0.0
2016-Sep-12 11:33N 45°28' E 036°45'0 0.0
2016-Sep-12 10:29N 45°28' E 036°45'0 0.0
2016-Sep-12 07:13N 45°28' E 036°45'0 0.0
2016-Sep-12 06:22N 45°28' E 036°45'0 0.0
2016-Sep-12 01:31N 45°28' E 036°45'0 0.0
2016-Sep-11 23:30N 45°28' E 036°45'0 0.0
2016-Sep-11 22:16N 45°28' E 036°45'0 0.0
2016-Sep-11 16:05N 45°28' E 036°45'0 0.0
2016-Sep-11 15:28N 45°28' E 036°45'0 0.0
2016-Sep-11 14:33N 45°28' E 036°45'0 0.0
2016-Sep-11 13:33N 45°28' E 036°45'0 0.0
2016-Sep-11 12:22N 45°28' E 036°45'0 0.0
2016-Sep-11 11:33N 45°28' E 036°45'0 0.0
2016-Sep-11 10:32N 45°28' E 036°45'0 0.0
2016-Sep-11 08:31N 45°28' E 036°45'0 0.0
2016-Sep-11 07:32N 45°28' E 036°45'0 0.0
2016-Sep-11 03:33N 45°28' E 036°45'0 0.0
2016-Sep-11 02:13N 45°28' E 036°45'0 0.0
2016-Sep-11 01:29N 45°28' E 036°45'0 0.0
2016-Sep-11 00:33N 45°28' E 036°45'0 0.0
2016-Sep-10 22:29N 45°28' E 036°45'0 0.0
2016-Sep-10 20:33N 45°28' E 036°45'0 0.0
2016-Sep-10 18:17N 45°28' E 036°45'0 0.0
2016-Sep-10 17:33N 45°28' E 036°45'0 0.0
2016-Sep-10 16:31N 45°28' E 036°45'0 0.0
2016-Sep-10 15:33N 45°28' E 036°45'0 0.0
2016-Sep-10 14:34N 45°28' E 036°45'0 0.0
2016-Sep-10 13:34N 45°28' E 036°45'0 0.0
2016-Sep-10 12:33N 45°28' E 036°45'0 0.0
2016-Sep-10 11:34N 45°28' E 036°45'0 0.0
2016-Sep-10 10:33N 45°28' E 036°45'0 0.0
2016-Sep-10 09:33N 45°28' E 036°45'0 0.0
2016-Sep-10 08:23N 45°28' E 036°45'0 0.0
2016-Sep-10 07:33N 45°28' E 036°45'1 0.6
2016-Sep-10 06:33N 45°28' E 036°44'1 1.4
2016-Sep-10 05:33N 45°30' E 036°44'0 0.0
2016-Sep-10 04:33N 45°30' E 036°44'0 0.0
2016-Sep-10 03:33N 45°30' E 036°44'0 0.0
2016-Sep-10 02:33N 45°30' E 036°44'0 0.0
2016-Sep-10 01:33N 45°30' E 036°44'0 0.0
2016-Sep-10 00:32N 45°30' E 036°44'0 0.0
2016-Sep-09 23:32N 45°30' E 036°44'0 0.0
2016-Sep-09 22:33N 45°30' E 036°44'0 0.0
2016-Sep-09 21:33N 45°30' E 036°44'0 0.0
2016-Sep-09 20:26N 45°30' E 036°44'0 0.0
2016-Sep-09 19:33N 45°30' E 036°44'0 0.0
2016-Sep-09 18:32N 45°30' E 036°44'0 0.0
2016-Sep-09 17:33N 45°30' E 036°44'0 0.0
2016-Sep-09 16:33N 45°30' E 036°44'0 0.0
2016-Sep-09 15:33N 45°30' E 036°44'0 0.0
2016-Sep-09 14:33N 45°30' E 036°44'0 0.0
2016-Sep-09 13:33N 45°30' E 036°44'0 0.0
2016-Sep-09 12:33N 45°30' E 036°44'1 1.0
2016-Sep-09 11:34N 45°30' E 036°45'  

Dump ship's entire track history